createdAt,value
2022-12-19T00:00:14.816Z,20.98
2022-12-19T00:02:16.595Z,20.98
2022-12-19T00:04:19.957Z,21.00
2022-12-19T00:06:21.260Z,21.03
2022-12-19T00:08:22.584Z,21.07
2022-12-19T00:10:23.881Z,21.14
2022-12-19T00:12:25.172Z,21.19
2022-12-19T00:14:26.477Z,21.26
2022-12-19T00:16:27.795Z,21.31
2022-12-19T00:18:29.508Z,21.35
2022-12-19T00:20:30.840Z,21.40
2022-12-19T00:22:32.124Z,21.43
2022-12-19T00:24:33.454Z,21.46
2022-12-19T00:26:34.743Z,21.48
2022-12-19T00:28:36.245Z,21.49
2022-12-19T00:30:37.549Z,21.51
2022-12-19T00:32:39.168Z,21.48
2022-12-19T00:34:40.460Z,21.48
2022-12-19T00:36:41.825Z,21.44
2022-12-19T00:38:43.108Z,21.42
2022-12-19T00:40:44.654Z,21.39
2022-12-19T00:42:51.696Z,21.35
2022-12-19T00:44:54.616Z,21.32
2022-12-19T00:46:55.940Z,21.28
2022-12-19T00:48:57.224Z,21.26
2022-12-19T00:50:58.505Z,21.23
2022-12-19T00:52:59.797Z,21.19
2022-12-19T00:55:01.267Z,21.16
2022-12-19T00:57:05.108Z,21.15
2022-12-19T00:59:06.422Z,21.12
2022-12-19T01:01:07.791Z,21.09
2022-12-19T01:03:09.170Z,21.05
2022-12-19T01:05:12.344Z,21.04
2022-12-19T01:07:13.640Z,20.99
2022-12-19T01:09:14.971Z,20.98
2022-12-19T01:11:16.266Z,20.99
2022-12-19T01:13:17.553Z,20.97
2022-12-19T01:15:18.893Z,20.96
2022-12-19T01:17:20.225Z,20.96
2022-12-19T01:19:21.872Z,20.98
2022-12-19T01:21:23.160Z,20.98
2022-12-19T01:23:24.446Z,21.01
2022-12-19T01:25:25.745Z,21.07
2022-12-19T01:27:27.028Z,21.12
2022-12-19T01:29:28.312Z,21.15
2022-12-19T01:31:29.665Z,21.21
2022-12-19T01:33:30.971Z,21.26
2022-12-19T01:35:32.266Z,21.36
2022-12-19T01:37:33.552Z,21.42
2022-12-19T01:39:34.843Z,21.43
2022-12-19T01:41:37.856Z,21.43
2022-12-19T01:43:39.146Z,21.43
2022-12-19T01:45:45.815Z,21.46
2022-12-19T01:47:47.618Z,21.49
2022-12-19T01:49:51.780Z,21.47
2022-12-19T01:51:53.111Z,21.47
2022-12-19T01:53:54.409Z,21.46
2022-12-19T01:55:55.692Z,21.41
2022-12-19T01:57:57.007Z,21.40
2022-12-19T01:59:58.309Z,21.39
2022-12-19T02:01:59.825Z,21.37
2022-12-19T02:04:01.267Z,21.37
2022-12-19T02:06:02.559Z,21.34
2022-12-19T02:08:03.865Z,21.29
2022-12-19T02:10:05.168Z,21.25
2022-12-19T02:12:06.582Z,21.24
2022-12-19T02:14:07.897Z,21.19
2022-12-19T02:16:09.242Z,21.17
2022-12-19T02:18:10.567Z,21.14
2022-12-19T02:20:11.900Z,21.09
2022-12-19T02:22:18.768Z,21.06
2022-12-19T02:24:20.331Z,21.03
2022-12-19T02:26:21.641Z,21.01
2022-12-19T02:28:22.982Z,21.01
2022-12-19T02:30:26.297Z,21.00
2022-12-19T02:32:27.594Z,20.98
2022-12-19T02:34:28.926Z,20.98
2022-12-19T02:36:30.230Z,20.96
2022-12-19T02:38:34.255Z,20.98
2022-12-19T02:40:35.581Z,21.01
2022-12-19T02:42:37.126Z,21.05
2022-12-19T02:44:38.458Z,21.11
2022-12-19T02:46:40.202Z,21.18
2022-12-19T02:48:41.513Z,21.27
2022-12-19T02:50:42.854Z,21.43
2022-12-19T02:52:47.056Z,21.51
2022-12-19T02:54:48.396Z,21.60
2022-12-19T02:56:49.729Z,21.64
2022-12-19T02:58:51.066Z,21.68
2022-12-19T03:00:52.470Z,21.71
2022-12-19T03:03:00.248Z,21.74
2022-12-19T03:05:03.189Z,21.72
2022-12-19T03:07:04.485Z,21.70
2022-12-19T03:09:05.761Z,21.68
2022-12-19T03:11:07.198Z,21.67
2022-12-19T03:13:08.503Z,21.59
2022-12-19T03:15:10.114Z,21.58
2022-12-19T03:17:11.529Z,21.55
2022-12-19T03:19:12.849Z,21.53
2022-12-19T03:21:14.237Z,21.47
2022-12-19T03:23:15.905Z,21.39
2022-12-19T03:25:18.398Z,21.27
2022-12-19T03:27:19.777Z,21.19
2022-12-19T03:29:21.074Z,21.11
2022-12-19T03:31:22.545Z,21.07
2022-12-19T03:33:23.868Z,20.99
2022-12-19T03:35:25.174Z,20.94
2022-12-19T03:37:26.511Z,20.87
2022-12-19T03:39:27.893Z,20.81
2022-12-19T03:41:47.698Z,20.78
2022-12-19T03:43:49.030Z,20.76
2022-12-19T03:45:50.623Z,20.74
2022-12-19T03:47:52.069Z,20.74
2022-12-19T03:49:53.450Z,20.75
2022-12-19T03:51:59.215Z,20.79
2022-12-19T03:54:00.806Z,20.83
2022-12-19T03:56:02.088Z,20.86
2022-12-19T03:58:03.663Z,20.92
2022-12-19T04:00:04.963Z,20.96
2022-12-19T04:02:06.359Z,21.01
2022-12-19T04:04:10.508Z,21.07
2022-12-19T04:06:11.819Z,21.14
2022-12-19T04:08:13.160Z,21.21
2022-12-19T04:10:14.864Z,21.23
2022-12-19T04:12:16.181Z,21.36
2022-12-19T04:14:17.518Z,21.42
2022-12-19T04:16:18.924Z,21.44
2022-12-19T04:18:20.310Z,21.44
2022-12-19T04:20:22.092Z,21.51
2022-12-19T04:22:23.389Z,21.55
2022-12-19T04:24:24.675Z,21.55
2022-12-19T04:26:26.001Z,21.61
2022-12-19T04:28:27.345Z,21.68
2022-12-19T04:30:28.646Z,21.69
2022-12-19T04:32:30.432Z,21.69
2022-12-19T04:34:31.776Z,21.66
2022-12-19T04:36:33.075Z,21.62
2022-12-19T04:38:34.397Z,21.61
2022-12-19T04:40:40.819Z,21.54
2022-12-19T04:42:42.955Z,21.48
2022-12-19T04:44:44.320Z,21.44
2022-12-19T04:46:45.712Z,21.39
2022-12-19T04:48:47.063Z,21.32
2022-12-19T04:50:48.412Z,21.25
2022-12-19T04:52:53.229Z,21.21
2022-12-19T04:54:56.952Z,21.19
2022-12-19T04:56:58.245Z,21.18
2022-12-19T04:59:00.192Z,21.16
2022-12-19T05:01:01.503Z,21.12
2022-12-19T05:03:02.925Z,21.07
2022-12-19T05:05:04.395Z,21.05
2022-12-19T05:07:05.685Z,21.02
2022-12-19T05:09:07.008Z,20.93
2022-12-19T05:11:08.341Z,20.94
2022-12-19T05:13:09.630Z,20.90
2022-12-19T05:15:11.841Z,20.84
2022-12-19T05:17:13.143Z,20.79
2022-12-19T05:19:15.032Z,20.75
2022-12-19T05:21:16.461Z,20.72
2022-12-19T05:23:17.997Z,20.72
2022-12-19T05:25:19.340Z,20.75
2022-12-19T05:27:20.638Z,20.84
2022-12-19T05:29:21.945Z,20.93
2022-12-19T05:31:23.350Z,21.05
2022-12-19T05:33:24.683Z,21.14
2022-12-19T05:35:26.001Z,21.17
2022-12-19T05:37:27.317Z,21.23
2022-12-19T05:39:28.610Z,21.30
2022-12-19T05:41:30.469Z,21.36
2022-12-19T05:43:31.884Z,21.45
2022-12-19T05:45:33.193Z,21.52
2022-12-19T05:47:34.808Z,21.57
2022-12-19T05:49:36.145Z,21.60
2022-12-19T05:51:37.557Z,21.67
2022-12-19T05:53:38.856Z,21.64
2022-12-19T05:55:40.430Z,21.62
2022-12-19T05:57:44.401Z,21.59
2022-12-19T05:59:45.729Z,21.58
2022-12-19T06:01:47.124Z,21.62
2022-12-19T06:03:48.529Z,21.63
2022-12-19T06:05:49.878Z,21.64
2022-12-19T06:07:51.198Z,21.62
2022-12-19T06:09:52.524Z,21.61
2022-12-19T06:11:53.849Z,21.54
2022-12-19T06:13:55.605Z,21.50
2022-12-19T06:15:56.936Z,21.44
2022-12-19T06:17:58.255Z,21.39
2022-12-19T06:19:59.547Z,21.39
2022-12-19T06:22:00.879Z,21.36
2022-12-19T06:24:02.238Z,21.34
2022-12-19T06:26:03.526Z,21.31
2022-12-19T06:28:04.869Z,21.30
2022-12-19T06:30:06.175Z,21.20
2022-12-19T06:32:07.469Z,21.16
2022-12-19T06:34:10.125Z,21.11
2022-12-19T06:36:11.427Z,21.08
2022-12-19T06:38:12.737Z,21.02
2022-12-19T06:40:33.984Z,20.98
2022-12-19T06:42:35.326Z,20.92
2022-12-19T06:44:36.688Z,20.88
2022-12-19T06:46:37.977Z,20.85
2022-12-19T06:48:39.334Z,20.84
2022-12-19T06:50:40.697Z,20.84
2022-12-19T06:52:42.201Z,20.86
2022-12-19T06:54:43.811Z,20.97
2022-12-19T06:56:45.098Z,21.08
2022-12-19T06:58:46.449Z,21.12
2022-12-19T07:00:47.877Z,21.13
2022-12-19T07:02:49.280Z,21.18
2022-12-19T07:04:50.689Z,21.27
2022-12-19T07:06:52.132Z,21.35
2022-12-19T07:08:53.445Z,21.38
2022-12-19T07:10:54.948Z,21.37
2022-12-19T07:12:56.303Z,21.42
2022-12-19T07:14:57.649Z,21.46
2022-12-19T07:16:59.006Z,21.49
2022-12-19T07:19:00.310Z,21.48
2022-12-19T07:21:01.653Z,21.52
2022-12-19T07:23:02.986Z,21.54
2022-12-19T07:25:04.290Z,21.61
2022-12-19T07:27:08.382Z,21.59
2022-12-19T07:29:12.695Z,21.59
2022-12-19T07:31:14.042Z,21.52
2022-12-19T07:33:21.051Z,21.48
2022-12-19T07:35:23.142Z,21.45
2022-12-19T07:37:24.486Z,21.41
2022-12-19T07:39:25.832Z,21.35
2022-12-19T07:41:27.300Z,21.31
2022-12-19T07:43:28.596Z,21.24
2022-12-19T07:45:30.138Z,21.19
2022-12-19T07:47:31.474Z,21.16
2022-12-19T07:49:32.819Z,21.15
2022-12-19T07:51:34.120Z,21.11
2022-12-19T07:53:35.424Z,21.07
2022-12-19T07:55:36.755Z,21.03
2022-12-19T07:57:38.102Z,20.98
2022-12-19T07:59:39.624Z,20.98
2022-12-19T08:01:41.027Z,20.90
2022-12-19T08:03:42.394Z,20.93
2022-12-19T08:05:43.704Z,20.93
2022-12-19T08:07:47.660Z,20.93
2022-12-19T08:09:49.005Z,20.99
2022-12-19T08:11:50.346Z,21.13
2022-12-19T08:13:51.642Z,21.25
2022-12-19T08:15:53.242Z,21.40
2022-12-19T08:17:54.604Z,21.25
2022-12-19T08:19:56.035Z,21.17
2022-12-19T08:21:57.374Z,21.44
2022-12-19T08:23:58.699Z,21.39
2022-12-19T08:26:00.360Z,21.30
2022-12-19T08:28:01.707Z,21.27
2022-12-19T08:30:03.002Z,21.24
2022-12-19T08:32:04.332Z,21.24
2022-12-19T08:34:05.632Z,21.27
2022-12-19T08:36:06.968Z,21.30
2022-12-19T08:38:08.298Z,21.34
2022-12-19T08:40:09.631Z,21.36
2022-12-19T08:42:10.943Z,21.42
2022-12-19T08:44:13.186Z,21.44
2022-12-19T08:46:14.540Z,21.43
2022-12-19T08:48:15.913Z,21.39
2022-12-19T08:50:17.251Z,21.36
2022-12-19T08:52:18.670Z,21.35
2022-12-19T08:54:20.059Z,21.32
2022-12-19T08:56:21.732Z,21.29
2022-12-19T08:58:23.115Z,21.25
2022-12-19T09:00:24.833Z,21.18
2022-12-19T09:02:27.171Z,21.16
2022-12-19T09:06:02.383Z,21.12
2022-12-19T09:06:50.080Z,21.08
2022-12-19T09:08:51.450Z,21.04
2022-12-19T09:10:54.909Z,20.99
2022-12-19T09:12:57.754Z,20.94
2022-12-19T09:14:59.371Z,20.88
2022-12-19T09:17:00.804Z,20.84
2022-12-19T09:19:05.559Z,19.17
2022-12-19T09:21:06.942Z,17.64
2022-12-19T09:23:09.330Z,16.91
2022-12-19T09:25:11.065Z,16.79
2022-12-19T09:27:12.384Z,16.64
2022-12-19T09:29:20.508Z,16.26
2022-12-19T09:31:22.884Z,17.66
2022-12-19T09:33:24.292Z,19.12
2022-12-19T09:35:30.070Z,19.91
2022-12-19T09:37:31.903Z,20.31
2022-12-19T09:39:34.250Z,20.77
2022-12-19T09:41:35.845Z,21.24
2022-12-19T09:43:41.228Z,21.43
2022-12-19T09:45:42.909Z,21.54
2022-12-19T09:47:44.296Z,21.66
2022-12-19T09:49:45.610Z,21.39
2022-12-19T09:51:47.007Z,21.30
2022-12-19T09:53:53.377Z,21.25
2022-12-19T09:55:56.247Z,21.80
2022-12-19T09:57:57.635Z,22.08
2022-12-19T09:59:58.929Z,22.33
2022-12-19T10:02:00.349Z,22.37
2022-12-19T10:04:02.113Z,22.48
2022-12-19T10:06:58.113Z,22.47
2022-12-19T10:08:24.738Z,22.55
2022-12-19T10:12:40.846Z,22.64
2022-12-19T10:12:52.858Z,22.57
2022-12-19T10:14:56.172Z,22.73
2022-12-19T10:17:23.159Z,22.72
2022-12-19T10:19:18.754Z,22.69
2022-12-19T10:21:20.115Z,22.45
2022-12-19T10:23:21.605Z,22.01
2022-12-19T10:25:23.010Z,21.79
2022-12-19T10:27:24.325Z,21.69
2022-12-19T10:29:25.689Z,21.64
2022-12-19T10:31:27.100Z,21.58
2022-12-19T10:33:28.492Z,21.52
2022-12-19T10:35:29.788Z,21.49
2022-12-19T10:37:41.057Z,21.47
2022-12-19T10:39:46.849Z,21.42
2022-12-19T10:41:48.201Z,21.36
2022-12-19T10:43:49.600Z,21.32
2022-12-19T10:45:50.943Z,21.28
2022-12-19T10:47:52.349Z,21.25
2022-12-19T10:49:53.940Z,21.20
2022-12-19T10:51:55.303Z,21.18
2022-12-19T10:53:57.208Z,21.17
2022-12-19T10:55:58.617Z,21.09
2022-12-19T10:58:00.142Z,20.19
2022-12-19T11:00:01.595Z,21.02
2022-12-19T11:02:07.199Z,21.04
2022-12-19T11:04:11.770Z,21.00
2022-12-19T11:06:13.116Z,20.96
2022-12-19T11:08:14.721Z,20.94
2022-12-19T11:11:15.507Z,20.93
2022-12-19T11:16:42.865Z,20.93
2022-12-19T11:19:41.628Z,20.95
2022-12-19T11:24:38.757Z,20.92
2022-12-19T11:29:18.185Z,20.95
2022-12-19T11:29:30.270Z,20.96
2022-12-19T11:29:40.720Z,20.97
2022-12-19T11:30:37.985Z,20.84
2022-12-19T11:30:48.365Z,20.91
2022-12-19T11:33:49.477Z,21.12
2022-12-19T11:35:51.024Z,21.18
2022-12-19T11:37:55.534Z,21.21
2022-12-19T11:39:57.302Z,21.21
2022-12-19T11:41:58.623Z,21.24
2022-12-19T11:44:02.100Z,21.28
2022-12-19T11:46:03.477Z,21.29
2022-12-19T11:48:04.777Z,21.28
2022-12-19T11:50:06.073Z,21.32
2022-12-19T11:52:23.707Z,21.30
2022-12-19T11:54:31.628Z,21.30
2022-12-19T11:56:32.926Z,21.30
2022-12-19T11:58:34.291Z,21.32
2022-12-19T12:00:37.239Z,21.30
2022-12-19T12:02:38.548Z,21.31
2022-12-19T12:04:40.010Z,21.29
2022-12-19T12:06:42.279Z,21.27
2022-12-19T12:09:48.479Z,21.27
2022-12-19T12:17:36.128Z,21.23
2022-12-19T12:24:51.709Z,21.22
2022-12-19T12:25:50.300Z,21.43
2022-12-19T12:30:09.089Z,21.42
2022-12-19T12:31:13.772Z,21.18
2022-12-19T12:31:31.888Z,21.25
2022-12-19T12:31:45.496Z,20.83
2022-12-19T12:31:45.687Z,20.97
2022-12-19T12:31:57.752Z,21.09
2022-12-19T12:35:33.637Z,20.75
2022-12-19T12:35:41.441Z,20.74
2022-12-19T12:39:29.792Z,20.73
2022-12-19T12:41:53.072Z,20.76
2022-12-19T12:43:54.477Z,20.76
2022-12-19T12:45:55.852Z,20.79
2022-12-19T12:47:57.185Z,20.77
2022-12-19T12:50:01.436Z,20.79
2022-12-19T12:52:02.854Z,20.81
2022-12-19T12:54:10.383Z,20.75
2022-12-19T12:56:11.715Z,20.67
2022-12-19T12:58:15.302Z,20.60
2022-12-19T13:00:19.269Z,20.50
2022-12-19T13:02:20.806Z,20.42
2022-12-19T13:04:22.356Z,20.36
2022-12-19T13:06:23.959Z,20.34
2022-12-19T13:08:25.391Z,20.35
2022-12-19T13:10:26.774Z,20.38
2022-12-19T13:12:46.979Z,20.41
2022-12-19T13:14:49.046Z,20.48
2022-12-19T13:16:50.436Z,20.56
2022-12-19T13:18:51.750Z,20.66
2022-12-19T13:20:53.080Z,20.72
2022-12-19T13:22:54.379Z,20.76
2022-12-19T13:24:55.679Z,20.82
2022-12-19T13:26:57.005Z,20.85
2022-12-19T13:28:58.292Z,20.89
2022-12-19T13:31:19.208Z,20.95
2022-12-19T13:33:20.928Z,20.99
2022-12-19T13:36:59.599Z,21.03
2022-12-19T13:39:56.273Z,21.09
2022-12-19T13:40:12.081Z,21.12
2022-12-19T13:42:32.729Z,21.16
2022-12-19T13:44:34.062Z,21.21
2022-12-19T13:46:35.394Z,21.29
2022-12-19T13:48:36.787Z,21.27
2022-12-19T13:50:38.137Z,21.26
2022-12-19T13:52:39.459Z,21.26
2022-12-19T13:54:40.783Z,21.22
2022-12-19T13:56:42.111Z,21.18
2022-12-19T13:58:43.413Z,21.17
2022-12-19T14:00:50.324Z,21.17
2022-12-19T14:02:54.905Z,21.15
2022-12-19T14:04:56.399Z,21.14
2022-12-19T14:06:57.701Z,21.12
2022-12-19T14:09:25.136Z,21.08
2022-12-19T14:11:41.099Z,20.17
2022-12-19T14:14:08.268Z,21.00
2022-12-19T14:16:14.448Z,20.98
2022-12-19T14:18:45.418Z,20.98
2022-12-19T14:22:03.939Z,20.95
2022-12-19T14:22:58.451Z,20.90
2022-12-19T14:25:44.057Z,20.90
2022-12-19T14:28:25.899Z,20.85
2022-12-19T14:30:26.260Z,20.83
2022-12-19T14:33:40.419Z,20.80
2022-12-19T14:36:48.901Z,20.78
2022-12-19T14:39:24.087Z,20.76
2022-12-19T14:41:31.639Z,20.74
2022-12-19T14:43:59.897Z,20.72
2022-12-19T14:52:25.848Z,20.70
2022-12-19T14:54:12.265Z,20.71
2022-12-19T14:54:15.726Z,20.72
2022-12-19T14:54:30.494Z,20.72
2022-12-19T14:56:13.644Z,20.46
2022-12-19T14:58:54.201Z,20.78
2022-12-19T15:00:08.712Z,20.81
2022-12-19T15:02:33.352Z,20.85
2022-12-19T15:04:51.449Z,20.90
2022-12-19T15:07:09.248Z,20.90
2022-12-19T15:10:58.685Z,20.93
2022-12-19T15:12:04.441Z,20.92
2022-12-19T15:14:56.894Z,20.95
2022-12-19T15:16:36.198Z,20.96
2022-12-19T15:18:38.280Z,20.94
2022-12-19T15:20:39.588Z,20.93
2022-12-19T15:22:40.891Z,20.94
2022-12-19T15:24:48.320Z,20.94
2022-12-19T15:26:49.607Z,20.93
2022-12-19T15:28:50.991Z,20.80
2022-12-19T15:30:52.459Z,20.96
2022-12-19T15:32:53.776Z,20.95
2022-12-19T15:34:55.559Z,20.97
2022-12-19T15:36:59.515Z,20.98
2022-12-19T15:39:00.825Z,20.95
2022-12-19T15:41:14.077Z,20.95
2022-12-19T15:43:53.089Z,20.95
2022-12-19T15:45:37.224Z,20.95
2022-12-19T15:47:38.690Z,20.96
2022-12-19T15:49:39.991Z,20.91
2022-12-19T15:51:41.285Z,20.89
2022-12-19T15:53:43.469Z,20.91
2022-12-19T15:55:44.837Z,20.92
2022-12-19T15:57:46.251Z,20.90
2022-12-19T15:59:47.563Z,20.90
2022-12-19T16:01:49.087Z,20.88
2022-12-19T16:03:50.926Z,20.86
2022-12-19T16:05:52.550Z,20.89
2022-12-19T16:07:54.411Z,20.85
2022-12-19T16:09:55.783Z,20.83
2022-12-19T16:11:58.129Z,20.86
2022-12-19T16:13:59.530Z,20.85
2022-12-19T16:16:00.904Z,20.87
2022-12-19T16:18:02.996Z,20.88
2022-12-19T16:20:04.326Z,20.84
2022-12-19T16:22:05.608Z,20.87
2022-12-19T16:24:06.946Z,20.89
2022-12-19T16:26:08.243Z,20.90
2022-12-19T16:28:09.635Z,20.92
2022-12-19T16:30:18.152Z,20.92
2022-12-19T16:32:20.143Z,20.90
2022-12-19T16:34:22.470Z,20.92
2022-12-19T16:36:23.820Z,20.94
2022-12-19T16:38:28.130Z,20.90
2022-12-19T16:40:32.379Z,20.90
2022-12-19T16:42:33.759Z,20.82
2022-12-19T16:44:35.876Z,20.90
2022-12-19T16:46:37.245Z,20.10
2022-12-19T16:48:38.777Z,20.93
2022-12-19T16:50:40.127Z,20.89
2022-12-19T16:52:42.882Z,20.87
2022-12-19T16:54:44.304Z,20.88
2022-12-19T16:56:48.505Z,20.87
2022-12-19T16:58:55.931Z,20.89
2022-12-19T17:00:57.259Z,20.88
2022-12-19T17:02:58.929Z,20.86
2022-12-19T17:05:00.361Z,20.87
2022-12-19T17:07:01.650Z,20.85
2022-12-19T17:09:03.021Z,20.77
2022-12-19T17:11:05.082Z,20.70
2022-12-19T17:13:06.415Z,20.62
2022-12-19T17:15:07.957Z,20.51
2022-12-19T17:17:09.305Z,20.41
2022-12-19T17:19:13.323Z,20.32
2022-12-19T17:21:14.692Z,20.31
2022-12-19T17:23:15.996Z,20.31
2022-12-19T17:25:17.307Z,20.29
2022-12-19T17:27:19.315Z,20.34
2022-12-19T17:29:20.702Z,20.38
2022-12-19T17:31:22.103Z,20.44
2022-12-19T17:33:29.770Z,20.49
2022-12-19T17:35:31.106Z,20.53
2022-12-19T17:37:32.463Z,20.57
2022-12-19T17:39:33.760Z,20.64
2022-12-19T17:41:35.081Z,20.70
2022-12-19T17:43:36.477Z,20.72
2022-12-19T17:45:40.699Z,20.74
2022-12-19T17:47:42.160Z,20.78
2022-12-19T17:49:43.593Z,20.80
2022-12-19T17:51:44.891Z,20.84
2022-12-19T17:53:46.207Z,20.84
2022-12-19T17:55:47.546Z,20.86
2022-12-19T17:57:48.879Z,20.88
2022-12-19T17:59:50.237Z,20.92
2022-12-19T18:01:51.758Z,20.98
2022-12-19T18:03:53.204Z,21.03
2022-12-19T18:05:54.523Z,21.06
2022-12-19T18:07:55.877Z,21.10
2022-12-19T18:09:57.187Z,21.07
2022-12-19T18:11:58.575Z,21.07
2022-12-19T18:13:59.958Z,21.08
2022-12-19T18:16:04.037Z,21.05
2022-12-19T18:18:11.242Z,21.07
2022-12-19T18:20:12.890Z,21.04
2022-12-19T18:22:14.285Z,21.04
2022-12-19T18:24:16.713Z,21.03
2022-12-19T18:26:18.117Z,21.01
2022-12-19T18:28:19.415Z,21.02
2022-12-19T18:30:23.635Z,21.04
2022-12-19T18:32:25.647Z,21.05
2022-12-19T18:34:26.960Z,21.03
2022-12-19T18:36:28.297Z,20.98
2022-12-19T18:38:29.683Z,20.98
2022-12-19T18:40:32.114Z,21.01
2022-12-19T18:42:33.548Z,21.03
2022-12-19T18:44:34.890Z,21.01
2022-12-19T18:46:39.546Z,21.02
2022-12-19T18:48:40.906Z,21.02
2022-12-19T18:50:42.495Z,21.00
2022-12-19T18:52:43.787Z,21.00
2022-12-19T18:54:45.137Z,20.95
2022-12-19T18:56:46.476Z,20.96
2022-12-19T18:58:48.575Z,20.95
2022-12-19T19:00:54.165Z,20.94
2022-12-19T19:02:58.866Z,20.90
2022-12-19T19:05:03.090Z,20.88
2022-12-19T19:07:04.459Z,20.84
2022-12-19T19:09:08.837Z,20.83
2022-12-19T19:11:10.347Z,20.81
2022-12-19T19:13:11.684Z,20.83
2022-12-19T19:15:13.011Z,20.83
2022-12-19T19:17:14.361Z,20.87
2022-12-19T19:19:16.685Z,20.85
2022-12-19T19:21:20.049Z,20.89
2022-12-19T19:23:21.388Z,20.90
2022-12-19T19:25:22.773Z,20.89
2022-12-19T19:27:24.101Z,20.92
2022-12-19T19:29:25.449Z,20.90
2022-12-19T19:31:26.851Z,20.94
2022-12-19T19:33:28.241Z,20.96
2022-12-19T19:35:29.530Z,20.92
2022-12-19T19:37:30.869Z,20.95
2022-12-19T19:39:32.205Z,20.92
2022-12-19T19:41:36.387Z,20.92
2022-12-19T19:43:37.722Z,20.94
2022-12-19T19:45:43.243Z,20.94
2022-12-19T19:47:45.068Z,20.94
2022-12-19T19:49:46.460Z,20.93
2022-12-19T19:51:47.743Z,20.94
2022-12-19T19:53:49.092Z,20.95
2022-12-19T19:55:50.390Z,20.97
2022-12-19T19:57:51.679Z,20.93
2022-12-19T19:59:53.047Z,20.96
2022-12-19T20:01:55.134Z,20.98
2022-12-19T20:03:59.717Z,20.92
2022-12-19T20:06:04.738Z,20.95
2022-12-19T20:08:06.568Z,20.98
2022-12-19T20:10:07.907Z,20.96
2022-12-19T20:12:09.214Z,20.97
2022-12-19T20:14:10.507Z,20.98
2022-12-19T20:16:12.005Z,20.95
2022-12-19T20:18:13.358Z,20.92
2022-12-19T20:20:14.699Z,20.93
2022-12-19T20:22:16.022Z,20.94
2022-12-19T20:24:17.339Z,20.93
2022-12-19T20:26:18.707Z,20.92
2022-12-19T20:28:20.055Z,20.94
2022-12-19T20:30:21.419Z,20.91
2022-12-19T20:32:22.776Z,20.92
2022-12-19T20:34:26.679Z,20.87
2022-12-19T20:36:28.022Z,20.90
2022-12-19T20:38:29.337Z,20.95
2022-12-19T20:40:30.651Z,20.91
2022-12-19T20:42:32.008Z,20.89
2022-12-19T20:44:33.321Z,20.89
2022-12-19T20:46:34.677Z,20.89
2022-12-19T20:48:42.104Z,20.89
2022-12-19T20:50:43.550Z,20.92
2022-12-19T20:52:44.868Z,20.92
2022-12-19T20:54:46.205Z,20.92
2022-12-19T20:56:47.550Z,20.89
2022-12-19T20:58:48.936Z,20.90
2022-12-19T21:00:50.265Z,20.88
2022-12-19T21:03:26.308Z,20.89
2022-12-19T21:05:13.025Z,20.92
2022-12-19T21:07:14.805Z,20.92
2022-12-19T21:09:16.248Z,20.90
2022-12-19T21:11:17.717Z,20.86
2022-12-19T21:13:19.151Z,20.89
2022-12-19T21:15:20.509Z,20.92
2022-12-19T21:17:21.825Z,20.87
2022-12-19T21:19:23.364Z,20.85
2022-12-19T21:21:24.838Z,20.88
2022-12-19T21:23:26.219Z,20.87
2022-12-19T21:25:27.603Z,20.88
2022-12-19T21:27:28.930Z,20.84
2022-12-19T21:29:30.449Z,20.86
2022-12-19T21:31:31.992Z,20.87
2022-12-19T21:33:33.444Z,20.88
2022-12-19T21:35:34.772Z,20.85
2022-12-19T21:37:43.175Z,20.86
2022-12-19T21:39:44.911Z,20.86
2022-12-19T21:41:46.245Z,20.85
2022-12-19T21:43:47.629Z,20.84
2022-12-19T21:45:48.966Z,20.81
2022-12-19T21:47:50.704Z,20.78
2022-12-19T21:49:51.998Z,20.75
2022-12-19T21:51:53.396Z,20.75
2022-12-19T21:53:55.238Z,20.77
2022-12-19T21:55:56.522Z,20.76
2022-12-19T21:57:57.896Z,20.78
2022-12-19T21:59:59.199Z,20.74
2022-12-19T22:02:00.713Z,20.73
2022-12-19T22:04:02.334Z,20.73
2022-12-19T22:06:04.761Z,20.74
2022-12-19T22:08:06.085Z,20.73
2022-12-19T22:10:07.419Z,20.74
2022-12-19T22:12:08.803Z,20.74
2022-12-19T22:14:10.142Z,20.70
2022-12-19T22:16:11.482Z,20.71
2022-12-19T22:18:12.945Z,20.73
2022-12-19T22:20:14.283Z,20.73
2022-12-19T22:22:15.591Z,20.76
2022-12-19T22:24:16.947Z,20.75
2022-12-19T22:26:20.914Z,20.68
2022-12-19T22:28:22.214Z,20.62
2022-12-19T22:30:23.562Z,20.52
2022-12-19T22:32:24.900Z,20.43
2022-12-19T22:34:26.238Z,20.33
2022-12-19T22:36:28.662Z,19.04
2022-12-19T22:38:30.261Z,17.09
2022-12-19T22:40:33.133Z,17.88
2022-12-19T22:42:34.458Z,19.47
2022-12-19T22:44:35.818Z,20.43
2022-12-19T22:46:37.161Z,20.88
2022-12-19T22:48:38.492Z,21.26
2022-12-19T22:50:39.787Z,21.41
2022-12-19T22:52:41.157Z,21.44
2022-12-19T22:54:42.464Z,21.50
2022-12-19T22:56:43.881Z,21.58
2022-12-19T22:58:45.238Z,21.70
2022-12-19T23:00:46.545Z,21.81
2022-12-19T23:02:48.108Z,21.89
2022-12-19T23:04:50.460Z,22.00
2022-12-19T23:06:51.775Z,22.12
2022-12-19T23:08:53.066Z,22.14
2022-12-19T23:10:54.509Z,22.14
2022-12-19T23:12:55.834Z,22.16
2022-12-19T23:14:57.147Z,22.38
2022-12-19T23:16:58.480Z,22.41
2022-12-19T23:18:59.949Z,22.46
2022-12-19T23:23:02.645Z,22.52
2022-12-19T23:25:03.986Z,22.61
2022-12-19T23:27:05.331Z,22.52
2022-12-19T23:29:06.651Z,22.45
2022-12-19T23:31:08.022Z,22.05
2022-12-19T23:33:09.312Z,22.02
2022-12-19T23:35:10.604Z,22.10
2022-12-19T23:37:12.796Z,22.17
2022-12-19T23:39:14.363Z,22.36
2022-12-19T23:41:15.694Z,22.40
2022-12-19T23:43:17.104Z,22.20
2022-12-19T23:45:18.611Z,22.16
2022-12-19T23:47:20.027Z,22.04
2022-12-19T23:49:21.315Z,21.93
2022-12-19T23:51:22.624Z,21.81
2022-12-19T23:53:23.943Z,21.76
2022-12-19T23:55:25.396Z,21.88
2022-12-19T23:57:26.744Z,21.41
2022-12-19T23:59:28.103Z,21.24
